Time;durP1;ratioP1;P1;durP2;ratioP2;P2;SDS_P1;SDS_P2;PMS_P1;PMS_P2;Temp;Humidity;BMP_temperature;BMP_pressure;BME280_temperature;BME280_humidity;BME280_pressure;Samples;Min_cycle;Max_cycle;Signal;HPM_P1;HPM_P2
2021/09/04 00:00:15;;;;;;;15.68;7.40;;;;;;;;;;6126677;23;19998;-74
2021/09/04 00:02:40;;;;;;;21.33;8.30;;;;;;;;;;6126758;23;20068;-74
2021/09/04 00:05:06;;;;;;;14.60;8.10;;;;;;;;;;6095574;23;20056;-75
2021/09/04 00:07:32;;;;;;;22.35;6.65;;;;;;;;;;6097455;23;20022;-74
2021/09/04 00:09:58;;;;;;;14.50;7.60;;;;;;;;;;6097938;23;19999;-74
2021/09/04 00:12:25;;;;;;;17.83;8.05;;;;;;;;;;6099487;23;20006;-75
2021/09/04 00:14:51;;;;;;;19.35;7.30;;;;;;;;;;6097682;23;20002;-75
2021/09/04 00:17:16;;;;;;;17.65;8.05;;;;;;;;;;6097396;23;19999;-74
2021/09/04 00:19:42;;;;;;;16.30;7.45;;;;;;;;;;6097037;23;20447;-74
2021/09/04 00:22:07;;;;;;;18.75;8.02;;;;;;;;;;6097295;23;19994;-74
2021/09/04 00:24:33;;;;;;;17.17;8.05;;;;;;;;;;6097445;23;20451;-74
2021/09/04 00:26:58;;;;;;;14.98;8.05;;;;;;;;;;6097513;23;20006;-75
2021/09/04 00:29:23;;;;;;;11.57;7.80;;;;;;;;;;6095886;23;20002;-75
2021/09/04 00:31:49;;;;;;;19.02;7.80;;;;;;;;;;6097359;23;20437;-75
2021/09/04 00:34:15;;;;;;;15.98;8.02;;;;;;;;;;6095314;23;20017;-74
2021/09/04 00:36:40;;;;;;;11.50;7.15;;;;;;;;;;6097354;23;19999;-75
2021/09/04 00:39:06;;;;;;;17.33;8.65;;;;;;;;;;6097432;23;20041;-75
2021/09/04 00:41:34;;;;;;;17.67;7.82;;;;;;;;;;6097156;23;19998;-74
2021/09/04 00:44:00;;;;;;;20.60;7.80;;;;;;;;;;6097165;23;19994;-74
2021/09/04 00:46:25;;;;;;;17.77;7.45;;;;;;;;;;6097085;23;20317;-75
2021/09/04 00:48:50;;;;;;;20.17;8.63;;;;;;;;;;6096994;23;20026;-75
2021/09/04 00:51:16;;;;;;;18.48;8.80;;;;;;;;;;6097081;23;20018;-75
2021/09/04 00:53:42;;;;;;;14.82;8.30;;;;;;;;;;6097394;23;19998;-75
2021/09/04 00:56:07;;;;;;;19.58;8.15;;;;;;;;;;6096852;23;20353;-75
2021/09/04 00:58:33;;;;;;;13.50;8.90;;;;;;;;;;6097317;23;20443;-74
2021/09/04 01:00:58;;;;;;;18.00;9.35;;;;;;;;;;6097040;23;20054;-74
2021/09/04 01:03:24;;;;;;;16.58;8.88;;;;;;;;;;6097556;23;20443;-74
2021/09/04 01:05:50;;;;;;;16.98;8.77;;;;;;;;;;6100425;23;20002;-74
2021/09/04 01:08:15;;;;;;;20.92;7.78;;;;;;;;;;6126083;23;20002;-75
2021/09/04 01:10:41;;;;;;;15.65;7.80;;;;;;;;;;6100370;23;20017;-75
2021/09/04 01:13:06;;;;;;;18.63;9.20;;;;;;;;;;6100253;23;20432;-75
2021/09/04 01:15:32;;;;;;;15.90;8.18;;;;;;;;;;6100046;23;20339;-74
2021/09/04 01:18:01;;;;;;;20.35;8.60;;;;;;;;;;6126142;23;20423;-74
2021/09/04 01:20:26;;;;;;;20.50;8.52;;;;;;;;;;6125963;23;20024;-75
2021/09/04 01:22:52;;;;;;;14.63;8.60;;;;;;;;;;6100176;23;19998;-75
2021/09/04 01:25:22;;;;;;;15.25;9.00;;;;;;;;;;6099808;23;20308;-75
2021/09/04 01:27:47;;;;;;;13.93;8.30;;;;;;;;;;6126159;23;20025;-75
2021/09/04 01:30:13;;;;;;;17.38;9.30;;;;;;;;;;6125541;23;20010;-75
2021/09/04 01:32:39;;;;;;;21.45;9.55;;;;;;;;;;6125769;23;20009;-74
2021/09/04 01:35:05;;;;;;;22.35;10.95;;;;;;;;;;6125935;23;20001;-75
2021/09/04 01:37:32;;;;;;;18.02;10.55;;;;;;;;;;6125950;23;19998;-74
2021/09/04 01:39:58;;;;;;;21.17;9.30;;;;;;;;;;6126001;23;20005;-74
2021/09/04 01:42:23;;;;;;;20.90;9.93;;;;;;;;;;6125602;23;20002;-74
2021/09/04 01:44:49;;;;;;;23.10;10.73;;;;;;;;;;6125895;23;20029;-75
2021/09/04 01:47:14;;;;;;;26.23;10.25;;;;;;;;;;6125887;23;20025;-74
2021/09/04 01:49:40;;;;;;;17.92;8.82;;;;;;;;;;6125739;23;20013;-74
2021/09/04 01:52:05;;;;;;;15.45;8.77;;;;;;;;;;6125956;23;20073;-75
2021/09/04 01:54:31;;;;;;;18.80;9.52;;;;;;;;;;6125604;23;20001;-74
2021/09/04 01:56:58;;;;;;;18.48;8.75;;;;;;;;;;6125974;23;20434;-74
2021/09/04 01:59:24;;;;;;;19.23;9.98;;;;;;;;;;6125894;23;19997;-74
2021/09/04 02:01:49;;;;;;;17.85;9.23;;;;;;;;;;6125707;23;20416;-74
2021/09/04 02:04:15;;;;;;;16.35;9.38;;;;;;;;;;6099187;23;20026;-75
2021/09/04 02:06:40;;;;;;;19.48;9.75;;;;;;;;;;6125994;23;19998;-74
2021/09/04 02:09:06;;;;;;;16.35;9.68;;;;;;;;;;6125839;23;20424;-74
2021/09/04 02:11:31;;;;;;;22.65;9.45;;;;;;;;;;6125484;23;20010;-75
2021/09/04 02:13:56;;;;;;;18.67;9.90;;;;;;;;;;6125799;23;20129;-75
2021/09/04 02:16:22;;;;;;;21.77;8.90;;;;;;;;;;6099827;23;20451;-75
2021/09/04 02:18:48;;;;;;;16.85;9.23;;;;;;;;;;6125470;23;20073;-75
2021/09/04 02:21:14;;;;;;;17.90;8.63;;;;;;;;;;6125725;23;20072;-75
2021/09/04 02:23:41;;;;;;;15.85;8.68;;;;;;;;;;6125822;23;20009;-75
2021/09/04 02:26:06;;;;;;;19.02;8.88;;;;;;;;;;6133757;23;19998;-75
2021/09/04 02:28:31;;;;;;;19.23;8.77;;;;;;;;;;6128673;23;20009;-74
2021/09/04 02:30:57;;;;;;;14.45;8.50;;;;;;;;;;6130700;23;20065;-75
2021/09/04 02:33:22;;;;;;;18.98;8.88;;;;;;;;;;6129906;23;20068;-75
2021/09/04 02:35:48;;;;;;;18.48;8.98;;;;;;;;;;6126817;23;20006;-75
2021/09/04 02:38:13;;;;;;;18.00;8.60;;;;;;;;;;6125679;23;20025;-75
2021/09/04 02:40:38;;;;;;;16.00;8.75;;;;;;;;;;6125916;23;20001;-74
2021/09/04 02:43:04;;;;;;;17.70;8.68;;;;;;;;;;6126863;23;19994;-74
2021/09/04 02:45:29;;;;;;;22.00;9.45;;;;;;;;;;6127573;23;20002;-74
2021/09/04 02:47:55;;;;;;;15.18;8.18;;;;;;;;;;6077495;23;20038;-74
2021/09/04 02:50:20;;;;;;;25.33;8.52;;;;;;;;;;6127350;23;20324;-75
2021/09/04 02:52:46;;;;;;;20.23;8.65;;;;;;;;;;6127681;23;19994;-75
2021/09/04 02:55:11;;;;;;;18.73;8.68;;;;;;;;;;6127532;23;20001;-75
2021/09/04 02:57:37;;;;;;;18.67;8.77;;;;;;;;;;6127560;23;20432;-74
2021/09/04 03:00:03;;;;;;;18.92;8.75;;;;;;;;;;6127565;23;20149;-75
2021/09/04 03:02:28;;;;;;;16.17;9.05;;;;;;;;;;6127238;23;20074;-74
2021/09/04 03:04:54;;;;;;;18.42;9.13;;;;;;;;;;6127179;23;20018;-74
2021/09/04 03:07:19;;;;;;;16.92;9.57;;;;;;;;;;6127541;23;20300;-75
2021/09/04 03:09:45;;;;;;;18.98;9.48;;;;;;;;;;6101309;23;20005;-75
2021/09/04 03:12:10;;;;;;;17.75;8.40;;;;;;;;;;6101311;23;20058;-74
2021/09/04 03:14:35;;;;;;;17.50;8.40;;;;;;;;;;6127371;23;20025;-74
2021/09/04 03:17:01;;;;;;;21.23;8.73;;;;;;;;;;6102025;23;20313;-75
2021/09/04 03:19:26;;;;;;;14.50;7.95;;;;;;;;;;6127609;23;20424;-75
2021/09/04 03:21:51;;;;;;;13.20;8.35;;;;;;;;;;6127343;23;20041;-75
2021/09/04 03:24:17;;;;;;;13.13;8.27;;;;;;;;;;6126802;23;20053;-75
2021/09/04 03:26:42;;;;;;;16.23;8.50;;;;;;;;;;6127363;23;20024;-75
2021/09/04 03:29:07;;;;;;;14.02;8.10;;;;;;;;;;6101349;23;20428;-75
2021/09/04 03:31:33;;;;;;;13.95;8.23;;;;;;;;;;6127079;23;20089;-74
2021/09/04 03:33:58;;;;;;;15.80;8.45;;;;;;;;;;6127037;23;20002;-75
2021/09/04 03:36:24;;;;;;;15.77;8.27;;;;;;;;;;6126984;23;19998;-75
2021/09/04 03:38:49;;;;;;;20.98;10.00;;;;;;;;;;6127247;23;19994;-75
2021/09/04 03:41:15;;;;;;;14.27;7.18;;;;;;;;;;6127187;23;20313;-74
2021/09/04 03:43:40;;;;;;;13.77;7.85;;;;;;;;;;6101244;23;20002;-74
2021/09/04 03:46:06;;;;;;;19.33;8.57;;;;;;;;;;6127129;23;20339;-74
2021/09/04 03:48:33;;;;;;;15.77;9.13;;;;;;;;;;6126903;23;20009;-74
2021/09/04 03:50:58;;;;;;;17.25;8.38;;;;;;;;;;6101073;23;20009;-75
2021/09/04 03:53:24;;;;;;;19.92;8.45;;;;;;;;;;6126956;23;20086;-75
2021/09/04 03:55:49;;;;;;;14.55;8.18;;;;;;;;;;6126857;23;20036;-75
2021/09/04 03:58:15;;;;;;;17.10;9.52;;;;;;;;;;6100889;23;20453;-75
2021/09/04 04:00:40;;;;;;;27.70;8.55;;;;;;;;;;6127165;23;20001;-74
2021/09/04 04:03:05;;;;;;;24.30;8.70;;;;;;;;;;6126863;23;20424;-74
2021/09/04 04:05:31;;;;;;;19.05;8.80;;;;;;;;;;6126516;23;20029;-74
2021/09/04 04:07:56;;;;;;;18.08;8.82;;;;;;;;;;6126831;23;20420;-74
2021/09/04 04:10:22;;;;;;;18.73;8.13;;;;;;;;;;6126619;23;20006;-74
2021/09/04 04:12:47;;;;;;;20.10;7.97;;;;;;;;;;6126687;23;20009;-74
2021/09/04 04:15:13;;;;;;;19.80;7.63;;;;;;;;;;6126910;23;19998;-75
2021/09/04 04:17:38;;;;;;;14.88;8.02;;;;;;;;;;6126827;23;20005;-74
2021/09/04 04:20:04;;;;;;;15.65;7.32;;;;;;;;;;6126514;23;20438;-74
2021/09/04 04:22:29;;;;;;;12.82;7.72;;;;;;;;;;6126603;23;19994;-75
2021/09/04 04:24:55;;;;;;;17.90;8.60;;;;;;;;;;6126905;23;20006;-75
2021/09/04 04:27:20;;;;;;;14.55;8.63;;;;;;;;;;6126764;23;20527;-74
2021/09/04 04:29:45;;;;;;;18.05;8.20;;;;;;;;;;6126659;23;19998;-75
2021/09/04 04:32:11;;;;;;;19.38;8.05;;;;;;;;;;6126417;23;20013;-75
2021/09/04 04:34:36;;;;;;;25.75;10.23;;;;;;;;;;6126482;23;20004;-74
2021/09/04 04:37:02;;;;;;;13.07;8.30;;;;;;;;;;6100596;23;20001;-75
2021/09/04 04:39:27;;;;;;;21.23;8.32;;;;;;;;;;6130162;23;20398;-76
2021/09/04 04:41:53;;;;;;;28.08;8.50;;;;;;;;;;6126772;23;20443;-75
2021/09/04 04:44:18;;;;;;;23.10;9.20;;;;;;;;;;6126288;23;20006;-75
2021/09/04 04:46:43;;;;;;;25.98;9.35;;;;;;;;;;6126505;23;20001;-75
2021/09/04 04:49:09;;;;;;;27.90;9.07;;;;;;;;;;6126409;23;20002;-75
2021/09/04 04:51:36;;;;;;;16.20;9.43;;;;;;;;;;6126262;23;20423;-74
2021/09/04 04:54:01;;;;;;;15.55;8.75;;;;;;;;;;6126315;23;20005;-75
2021/09/04 04:56:27;;;;;;;16.77;9.30;;;;;;;;;;6126280;23;20002;-75
2021/09/04 04:58:52;;;;;;;16.38;9.57;;;;;;;;;;6126430;23;20005;-75
2021/09/04 05:01:18;;;;;;;17.55;8.25;;;;;;;;;;6126500;23;20002;-75
2021/09/04 05:03:43;;;;;;;17.70;9.73;;;;;;;;;;6126101;23;20014;-74
2021/09/04 05:06:08;;;;;;;26.05;9.88;;;;;;;;;;6125914;23;20037;-75
2021/09/04 05:08:34;;;;;;;21.25;9.52;;;;;;;;;;6126169;23;20022;-74
2021/09/04 05:10:59;;;;;;;21.45;10.20;;;;;;;;;;6126215;23;20086;-75
2021/09/04 05:13:25;;;;;;;20.00;9.88;;;;;;;;;;6126304;23;19998;-75
2021/09/04 05:15:50;;;;;;;22.40;10.70;;;;;;;;;;6126322;23;20048;-74
2021/09/04 05:18:16;;;;;;;21.15;10.18;;;;;;;;;;6125334;23;20009;-74
2021/09/04 05:20:44;;;;;;;20.83;10.45;;;;;;;;;;6125918;23;20305;-73
2021/09/04 05:23:10;;;;;;;17.10;9.68;;;;;;;;;;6126283;23;20012;-74
2021/09/04 05:25:35;;;;;;;19.45;10.10;;;;;;;;;;6126093;23;20072;-73
2021/09/04 05:28:01;;;;;;;19.77;9.43;;;;;;;;;;6126224;23;19998;-74
2021/09/04 05:30:26;;;;;;;19.05;8.35;;;;;;;;;;6125863;23;20088;-73
2021/09/04 05:32:52;;;;;;;15.80;8.07;;;;;;;;;;6125985;23;19998;-73
2021/09/04 05:35:17;;;;;;;22.55;7.82;;;;;;;;;;6125943;23;19998;-73
2021/09/04 05:37:42;;;;;;;16.05;7.80;;;;;;;;;;6126051;23;20435;-73
2021/09/04 05:40:08;;;;;;;15.70;7.00;;;;;;;;;;6099848;23;20377;-73
2021/09/04 05:42:34;;;;;;;11.60;6.80;;;;;;;;;;6125901;23;19998;-73
2021/09/04 05:44:59;;;;;;;15.52;7.15;;;;;;;;;;6125866;23;20002;-73
2021/09/04 05:47:25;;;;;;;20.40;7.03;;;;;;;;;;6125995;23;20002;-73
2021/09/04 05:49:50;;;;;;;16.10;6.88;;;;;;;;;;6125641;23;20005;-73
2021/09/04 05:52:15;;;;;;;20.80;6.38;;;;;;;;;;6099774;23;20563;-74
2021/09/04 05:54:41;;;;;;;11.00;6.15;;;;;;;;;;6125788;23;20388;-73
2021/09/04 05:57:06;;;;;;;13.90;6.50;;;;;;;;;;6125910;23;20005;-73
2021/09/04 05:59:35;;;;;;;13.07;6.68;;;;;;;;;;6126001;23;20049;-73
2021/09/04 06:02:00;;;;;;;10.30;6.82;;;;;;;;;;6125727;23;20412;-72
2021/09/04 06:04:25;;;;;;;13.10;6.60;;;;;;;;;;6125086;23;20076;-72
2021/09/04 06:06:51;;;;;;;10.63;6.13;;;;;;;;;;6125743;23;20081;-72
2021/09/04 06:09:16;;;;;;;12.75;6.57;;;;;;;;;;6099827;23;20005;-73
2021/09/04 06:11:42;;;;;;;11.20;6.13;;;;;;;;;;6125789;23;20009;-72
2021/09/04 06:14:09;;;;;;;13.90;7.28;;;;;;;;;;6125720;23;19994;-72
2021/09/04 06:16:35;;;;;;;12.82;7.72;;;;;;;;;;6125615;23;20021;-72
2021/09/04 06:19:00;;;;;;;16.33;7.63;;;;;;;;;;6125550;23;20005;-72
2021/09/04 06:21:26;;;;;;;13.93;5.80;;;;;;;;;;6125867;23;19998;-73
2021/09/04 06:23:51;;;;;;;9.45;6.07;;;;;;;;;;6125664;23;20327;-73
2021/09/04 06:26:17;;;;;;;14.38;6.40;;;;;;;;;;6125400;23;20140;-73
2021/09/04 06:28:42;;;;;;;17.23;6.43;;;;;;;;;;6125684;23;20002;-72
2021/09/04 06:31:07;;;;;;;15.50;5.97;;;;;;;;;;6125563;23;20029;-73
2021/09/04 06:33:33;;;;;;;14.48;5.95;;;;;;;;;;6099965;23;20038;-72
2021/09/04 06:35:58;;;;;;;11.85;5.72;;;;;;;;;;6125477;23;19998;-72
2021/09/04 06:38:24;;;;;;;13.35;6.93;;;;;;;;;;6125536;23;20077;-72
2021/09/04 06:40:49;;;;;;;17.23;7.53;;;;;;;;;;6125603;23;20006;-72
2021/09/04 06:43:15;;;;;;;11.70;6.82;;;;;;;;;;6125634;23;20447;-72
2021/09/04 06:45:40;;;;;;;23.58;7.10;;;;;;;;;;6125810;23;20069;-72
2021/09/04 06:48:06;;;;;;;14.63;6.43;;;;;;;;;;6125593;23;20049;-72
2021/09/04 06:50:32;;;;;;;13.50;6.15;;;;;;;;;;6125128;23;20085;-72
2021/09/04 06:52:57;;;;;;;9.52;6.57;;;;;;;;;;6138195;23;20442;-73
2021/09/04 06:55:23;;;;;;;11.05;5.75;;;;;;;;;;6126439;23;20005;-72
2021/09/04 06:57:48;;;;;;;12.57;6.43;;;;;;;;;;6125672;23;20324;-72
2021/09/04 07:00:14;;;;;;;11.20;6.05;;;;;;;;;;6125324;23;20720;-73
2021/09/04 07:02:39;;;;;;;7.13;5.13;;;;;;;;;;6125544;23;19998;-72
2021/09/04 07:05:05;;;;;;;11.30;6.85;;;;;;;;;;6125192;23;20101;-73
2021/09/04 07:07:31;;;;;;;12.95;6.68;;;;;;;;;;6125670;23;20444;-73
2021/09/04 07:09:56;;;;;;;19.52;7.20;;;;;;;;;;6125214;23;20001;-72
2021/09/04 07:12:21;;;;;;;16.15;7.45;;;;;;;;;;6127834;23;20029;-74
2021/09/04 07:14:47;;;;;;;20.25;6.53;;;;;;;;;;6129557;23;19998;-73
2021/09/04 07:17:12;;;;;;;17.33;6.68;;;;;;;;;;6128570;23;20041;-73
2021/09/04 07:19:39;;;;;;;17.90;7.00;;;;;;;;;;6127291;23;20057;-73
2021/09/04 07:22:04;;;;;;;10.18;6.45;;;;;;;;;;6125566;23;20328;-73
2021/09/04 07:24:29;;;;;;;13.50;6.55;;;;;;;;;;6125307;23;20000;-73
2021/09/04 07:26:55;;;;;;;11.43;6.35;;;;;;;;;;6125554;23;20062;-73
2021/09/04 07:29:20;;;;;;;12.40;7.28;;;;;;;;;;6126033;23;20002;-73
2021/09/04 07:31:46;;;;;;;14.57;6.22;;;;;;;;;;6127041;23;20033;-73
2021/09/04 07:34:11;;;;;;;17.35;5.95;;;;;;;;;;6127004;23;19997;-73
2021/09/04 07:36:37;;;;;;;11.27;5.13;;;;;;;;;;6126949;23;19998;-73
2021/09/04 07:39:02;;;;;;;15.35;5.65;;;;;;;;;;6127152;23;20324;-73
2021/09/04 07:41:28;;;;;;;11.52;4.95;;;;;;;;;;6127297;23;20004;-72
2021/09/04 07:43:53;;;;;;;7.13;4.82;;;;;;;;;;6127098;23;20002;-73
2021/09/04 07:46:18;;;;;;;10.32;4.85;;;;;;;;;;6126952;23;20010;-73
2021/09/04 07:48:44;;;;;;;7.25;4.47;;;;;;;;;;6126980;23;20025;-73
2021/09/04 07:51:09;;;;;;;7.78;4.25;;;;;;;;;;6126867;23;20076;-73
2021/09/04 07:53:35;;;;;;;6.78;4.35;;;;;;;;;;6127233;23;20450;-73
2021/09/04 07:56:00;;;;;;;13.15;4.22;;;;;;;;;;6126989;23;20002;-73
2021/09/04 07:58:25;;;;;;;6.68;4.35;;;;;;;;;;6126835;23;19994;-73
2021/09/04 08:00:51;;;;;;;9.65;4.47;;;;;;;;;;6126716;23;19997;-73
2021/09/04 08:03:16;;;;;;;13.55;5.57;;;;;;;;;;6126683;23;20025;-73
2021/09/04 08:05:42;;;;;;;7.93;4.00;;;;;;;;;;6126801;23;20014;-73
2021/09/04 08:08:07;;;;;;;8.05;4.00;;;;;;;;;;6126765;23;20077;-73
2021/09/04 08:10:32;;;;;;;5.10;3.40;;;;;;;;;;6126647;23;20033;-74
2021/09/04 08:12:58;;;;;;;4.53;3.50;;;;;;;;;;6126917;23;20025;-74
2021/09/04 08:15:23;;;;;;;5.80;2.95;;;;;;;;;;6127237;23;20009;-74
2021/09/04 08:17:49;;;;;;;4.63;3.25;;;;;;;;;;6126692;23;20129;-74
2021/09/04 08:20:15;;;;;;;5.68;3.33;;;;;;;;;;6126412;23;19998;-73
2021/09/04 08:22:40;;;;;;;31.83;5.35;;;;;;;;;;6126774;23;20073;-74
2021/09/04 08:25:06;;;;;;;6.50;3.40;;;;;;;;;;6126655;23;20048;-74
2021/09/04 08:27:31;;;;;;;6.72;2.92;;;;;;;;;;6100921;23;20085;-74
2021/09/04 08:29:57;;;;;;;4.75;3.53;;;;;;;;;;6126559;23;20037;-74
2021/09/04 08:32:23;;;;;;;7.20;3.22;;;;;;;;;;6126537;23;20005;-74
2021/09/04 08:34:48;;;;;;;8.20;3.70;;;;;;;;;;6126586;23;20002;-73
2021/09/04 08:37:14;;;;;;;8.75;4.15;;;;;;;;;;6126502;23;20005;-74
2021/09/04 08:39:40;;;;;;;8.68;3.35;;;;;;;;;;6126340;23;20004;-74
2021/09/04 08:42:05;;;;;;;6.30;3.80;;;;;;;;;;6126636;23;19994;-73
2021/09/04 08:44:31;;;;;;;11.07;3.90;;;;;;;;;;6100684;23;20006;-74
2021/09/04 08:46:57;;;;;;;7.15;4.15;;;;;;;;;;6126485;23;19998;-73
2021/09/04 08:49:23;;;;;;;9.88;4.28;;;;;;;;;;6126731;23;20080;-74
2021/09/04 08:51:48;;;;;;;5.55;3.00;;;;;;;;;;6126257;23;20085;-73
2021/09/04 08:54:14;;;;;;;6.28;3.05;;;;;;;;;;6100354;23;20445;-74
2021/09/04 08:56:39;;;;;;;5.75;3.05;;;;;;;;;;6126504;23;20056;-74
2021/09/04 08:59:05;;;;;;;6.95;3.03;;;;;;;;;;6126450;23;19994;-74
2021/09/04 09:01:30;;;;;;;8.45;3.13;;;;;;;;;;6126478;23;19994;-74
2021/09/04 09:04:01;;;;;;;6.78;3.30;;;;;;;;;;6126035;23;20467;-74
2021/09/04 09:06:30;;;;;;;8.70;3.35;;;;;;;;;;6137499;23;19989;-73
2021/09/04 09:08:56;;;;;;;11.35;3.00;;;;;;;;;;6128181;23;19997;-74
2021/09/04 09:11:22;;;;;;;3.80;2.42;;;;;;;;;;6126148;23;20010;-74
2021/09/04 09:13:49;;;;;;;4.05;2.83;;;;;;;;;;6126438;23;20409;-74
2021/09/04 09:16:16;;;;;;;5.20;2.58;;;;;;;;;;6126046;23;20064;-74
2021/09/04 09:18:41;;;;;;;4.80;2.22;;;;;;;;;;6126167;23;19998;-74
2021/09/04 09:21:07;;;;;;;2.80;2.13;;;;;;;;;;6126122;23;20005;-74
2021/09/04 09:23:32;;;;;;;4.95;2.72;;;;;;;;;;6126173;23;20006;-75
2021/09/04 09:26:08;;;;;;;6.88;2.70;;;;;;;;;;6100110;23;20329;-74
2021/09/04 09:28:33;;;;;;;4.43;3.20;;;;;;;;;;6126273;23;20021;-74
2021/09/04 09:31:00;;;;;;;5.75;2.85;;;;;;;;;;6125876;23;20013;-74
2021/09/04 09:33:28;;;;;;;5.88;2.80;;;;;;;;;;6100378;23;19994;-74
2021/09/04 09:35:57;;;;;;;5.40;2.67;;;;;;;;;;6125925;23;20001;-74
2021/09/04 09:38:25;;;;;;;12.88;3.25;;;;;;;;;;6125995;23;19998;-74
2021/09/04 09:40:52;;;;;;;5.50;2.75;;;;;;;;;;6126121;23;20077;-74
2021/09/04 09:43:22;;;;;;;7.43;3.42;;;;;;;;;;6125948;23;20021;-74
2021/09/04 09:45:52;;;;;;;4.55;3.05;;;;;;;;;;6099936;23;19994;-74
2021/09/04 09:48:23;;;;;;;6.97;3.53;;;;;;;;;;6125559;23;20002;-74
2021/09/04 09:50:50;;;;;;;5.07;3.60;;;;;;;;;;6125961;23;20002;-74
2021/09/04 09:53:17;;;;;;;6.75;4.03;;;;;;;;;;6125612;23;20104;-75
2021/09/04 09:55:45;;;;;;;5.72;3.40;;;;;;;;;;6126030;23;20125;-74
2021/09/04 09:58:12;;;;;;;5.38;3.00;;;;;;;;;;6125581;23;20037;-75
2021/09/04 10:00:37;;;;;;;6.72;2.95;;;;;;;;;;6125869;23;20388;-74
2021/09/04 10:03:05;;;;;;;6.93;2.97;;;;;;;;;;6125656;23;20002;-75
2021/09/04 10:05:31;;;;;;;5.35;2.97;;;;;;;;;;6099709;23;20025;-75
2021/09/04 10:07:58;;;;;;;3.97;2.67;;;;;;;;;;6099844;23;19998;-74
2021/09/04 10:10:27;;;;;;;4.40;2.65;;;;;;;;;;6125644;23;20010;-74
2021/09/04 10:12:54;;;;;;;4.60;2.72;;;;;;;;;;6125928;23;20002;-74
2021/09/04 10:15:21;;;;;;;7.22;2.67;;;;;;;;;;6125611;23;19994;-75
2021/09/04 10:17:49;;;;;;;5.00;2.75;;;;;;;;;;6099725;23;20424;-74
2021/09/04 10:20:14;;;;;;;6.55;2.53;;;;;;;;;;6125374;23;20049;-74
2021/09/04 10:22:41;;;;;;;5.00;3.05;;;;;;;;;;6125835;23;20367;-75
2021/09/04 10:25:14;;;;;;;3.33;2.50;;;;;;;;;;6125749;23;20074;-75
2021/09/04 10:27:42;;;;;;;4.53;2.47;;;;;;;;;;6125647;23;20045;-74
2021/09/04 10:30:24;;;;;;;3.78;3.20;;;;;;;;;;6099284;23;20010;-74
2021/09/04 10:33:05;;;;;;;6.53;2.88;;;;;;;;;;6125799;23;19998;-75
2021/09/04 10:35:37;;;;;;;9.23;3.28;;;;;;;;;;6125977;23;20081;-75
2021/09/04 10:38:08;;;;;;;7.05;3.10;;;;;;;;;;6125579;23;20089;-75
2021/09/04 10:40:37;;;;;;;5.78;2.65;;;;;;;;;;6125502;23;20029;-74
2021/09/04 10:43:02;;;;;;;;;;;;;;;;;;6125982;23;20001;-75
2021/09/04 10:45:27;;;;;;;3.77;3.00;;;;;;;;;;6125512;23;20234;-75
2021/09/04 10:47:56;;;;;;;4.25;3.05;;;;;;;;;;6099812;23;20009;-75
2021/09/04 10:50:24;;;;;;;4.30;2.90;;;;;;;;;;6125302;23;20006;-82
2021/09/04 10:52:56;;;;;;;3.90;2.83;;;;;;;;;;6125491;23;20006;-74
2021/09/04 10:55:24;;;;;;;13.38;3.25;;;;;;;;;;6125697;23;20383;-75
2021/09/04 10:57:51;;;;;;;4.17;2.60;;;;;;;;;;6125459;23;20084;-74
2021/09/04 11:00:18;;;;;;;4.88;2.95;;;;;;;;;;6125340;23;20225;-75
2021/09/04 11:02:45;;;;;;;6.35;4.03;;;;;;;;;;6099466;23;20428;-75
2021/09/04 11:05:29;;;;;;;4.97;2.92;;;;;;;;;;6127153;23;20101;-74
2021/09/04 11:07:59;;;;;;;7.90;3.35;;;;;;;;;;6127294;23;20441;-74
2021/09/04 11:10:25;;;;;;;5.32;2.88;;;;;;;;;;6101431;23;20038;-74
2021/09/04 11:13:09;;;;;;;4.35;3.20;;;;;;;;;;6127242;23;20443;-74
2021/09/04 11:15:34;;;;;;;6.07;3.53;;;;;;;;;;6127439;23;20005;-75
2021/09/04 11:18:00;;;;;;;5.75;3.40;;;;;;;;;;6127207;23;20006;-74
2021/09/04 11:20:25;;;;;;;3.70;3.15;;;;;;;;;;6128839;23;19998;-75
2021/09/04 11:22:51;;;;;;;7.07;3.30;;;;;;;;;;6138209;23;20005;-74
2021/09/04 11:25:19;;;;;;;3.50;2.60;;;;;;;;;;6127266;23;19998;-75
2021/09/04 11:27:44;;;;;;;3.70;2.90;;;;;;;;;;6101162;23;20013;-75
2021/09/04 11:30:14;;;;;;;4.68;2.70;;;;;;;;;;6100794;23;20006;-75
2021/09/04 11:32:39;;;;;;;4.53;2.33;;;;;;;;;;6126983;23;20042;-74
2021/09/04 11:35:05;;;;;;;3.97;3.13;;;;;;;;;;6127205;23;20033;-75
2021/09/04 11:37:34;;;;;;;6.63;3.00;;;;;;;;;;6127482;23;20490;-75
2021/09/04 11:40:02;;;;;;;5.63;2.97;;;;;;;;;;6127077;23;20502;-75
2021/09/04 11:42:29;;;;;;;4.03;2.78;;;;;;;;;;6100808;23;20001;-75
2021/09/04 11:44:56;;;;;;;4.65;2.65;;;;;;;;;;6126929;23;20006;-75
2021/09/04 11:47:22;;;;;;;8.70;2.95;;;;;;;;;;6095116;23;20059;-75
2021/09/04 11:49:49;;;;;;;3.50;2.75;;;;;;;;;;6125348;23;20002;-75
2021/09/04 11:52:19;;;;;;;4.13;3.05;;;;;;;;;;6100829;23;20069;-75
2021/09/04 11:54:44;;;;;;;7.07;2.90;;;;;;;;;;6126961;23;20002;-75
2021/09/04 11:57:23;;;;;;;5.85;3.40;;;;;;;;;;6126850;23;20130;-75
2021/09/04 12:00:06;;;;;;;5.10;3.67;;;;;;;;;;6126818;23;20005;-74
2021/09/04 12:02:32;;;;;;;5.95;3.03;;;;;;;;;;6127029;23;19998;-74
2021/09/04 12:05:02;;;;;;;5.50;3.00;;;;;;;;;;6126481;23;20109;-74
2021/09/04 12:07:28;;;;;;;5.78;3.38;;;;;;;;;;6101531;23;20029;-74
2021/09/04 12:09:54;;;;;;;5.72;2.58;;;;;;;;;;6126633;23;20424;-74
2021/09/04 12:12:23;;;;;;;4.65;3.05;;;;;;;;;;6126497;23;19998;-74
2021/09/04 12:14:48;;;;;;;3.97;2.88;;;;;;;;;;6126441;23;20013;-74
2021/09/04 12:17:17;;;;;;;10.85;3.47;;;;;;;;;;6126864;23;20002;-75
2021/09/04 12:19:43;;;;;;;4.93;3.20;;;;;;;;;;6126866;23;20001;-74
2021/09/04 12:22:08;;;;;;;3.47;2.72;;;;;;;;;;6126495;23;20013;-74
2021/09/04 12:24:34;;;;;;;4.15;3.30;;;;;;;;;;6126889;23;20001;-75
2021/09/04 12:26:59;;;;;;;5.38;3.08;;;;;;;;;;6126507;23;20045;-74
2021/09/04 12:29:28;;;;;;;4.88;3.35;;;;;;;;;;6128845;23;19994;-74
2021/09/04 12:31:53;;;;;;;;;;;;;;;;;;6129523;23;20013;-74
2021/09/04 12:34:20;;;;;;;7.00;2.90;;;;;;;;;;6128866;23;19901;-74
2021/09/04 12:36:46;;;;;;;4.75;3.10;;;;;;;;;;6128184;23;20005;-74
2021/09/04 12:39:14;;;;;;;5.18;3.22;;;;;;;;;;6126570;23;20001;-74
2021/09/04 12:41:39;;;;;;;4.57;3.05;;;;;;;;;;6126471;23;20435;-73
2021/09/04 12:44:06;;;;;;;6.32;3.20;;;;;;;;;;6126491;23;20002;-73
2021/09/04 12:46:38;;;;;;;7.53;3.30;;;;;;;;;;6126291;23;19998;-74
2021/09/04 12:49:22;;;;;;;5.55;3.33;;;;;;;;;;6094524;23;20002;-74
2021/09/04 12:52:12;;;;;;;5.97;3.17;;;;;;;;;;6123331;23;20064;-74
2021/09/04 12:54:39;;;;;;;5.88;3.15;;;;;;;;;;6126481;23;20033;-74
2021/09/04 12:57:08;;;;;;;5.10;2.75;;;;;;;;;;6126491;23;20029;-74
2021/09/04 12:59:52;;;;;;;4.68;3.05;;;;;;;;;;6126556;23;19998;-74
2021/09/04 13:02:19;;;;;;;5.95;3.50;;;;;;;;;;6125963;23;20005;-74
2021/09/04 13:04:45;;;;;;;6.97;2.97;;;;;;;;;;6099756;23;20100;-74
2021/09/04 13:07:11;;;;;;;9.25;3.10;;;;;;;;;;6100345;23;20005;-75
2021/09/04 13:09:37;;;;;;;5.50;3.20;;;;;;;;;;6100194;23;20029;-76
2021/09/04 13:12:02;;;;;;;3.53;2.75;;;;;;;;;;6100095;23;20424;-75
2021/09/04 13:14:28;;;;;;;3.95;2.72;;;;;;;;;;6126125;23;20002;-75
2021/09/04 13:16:55;;;;;;;2.88;2.33;;;;;;;;;;6126011;23;20105;-75
2021/09/04 13:19:21;;;;;;;2.80;2.10;;;;;;;;;;6125920;23;19994;-75
2021/09/04 13:21:47;;;;;;;3.33;2.40;;;;;;;;;;6126179;23;20061;-75
2021/09/04 13:24:12;;;;;;;3.17;2.33;;;;;;;;;;6125815;23;20419;-75
2021/09/04 13:26:38;;;;;;;5.30;2.58;;;;;;;;;;6126269;23;20002;-75
2021/09/04 13:29:03;;;;;;;3.20;2.70;;;;;;;;;;6126092;23;19994;-75
2021/09/04 13:31:28;;;;;;;4.93;2.72;;;;;;;;;;6126229;23;20016;-76
2021/09/04 13:33:54;;;;;;;3.67;2.80;;;;;;;;;;6125819;23;20420;-75
2021/09/04 13:36:19;;;;;;;3.53;2.60;;;;;;;;;;6126495;23;20036;-76
2021/09/04 13:38:45;;;;;;;5.35;2.90;;;;;;;;;;6132203;23;20052;-76
2021/09/04 13:41:10;;;;;;;4.07;2.65;;;;;;;;;;6126164;23;20339;-75
2021/09/04 13:43:36;;;;;;;4.95;2.70;;;;;;;;;;6126196;23;20045;-75
2021/09/04 13:46:01;;;;;;;4.28;2.80;;;;;;;;;;6126037;23;19998;-75
2021/09/04 13:48:27;;;;;;;7.28;2.85;;;;;;;;;;6125661;23;20005;-75
2021/09/04 13:50:52;;;;;;;4.78;3.00;;;;;;;;;;6099548;23;20045;-75
2021/09/04 13:53:20;;;;;;;7.22;3.10;;;;;;;;;;6125830;23;20057;-75
2021/09/04 13:55:48;;;;;;;8.68;3.33;;;;;;;;;;6125866;23;20029;-75
2021/09/04 13:58:14;;;;;;;5.63;3.00;;;;;;;;;;6099692;23;20002;-75
2021/09/04 14:00:40;;;;;;;6.95;3.10;;;;;;;;;;6125962;23;20040;-75
2021/09/04 14:03:06;;;;;;;8.68;3.13;;;;;;;;;;6099824;23;20069;-74
2021/09/04 14:05:32;;;;;;;8.73;2.97;;;;;;;;;;6125805;23;20439;-75
2021/09/04 14:07:57;;;;;;;5.57;3.47;;;;;;;;;;6125628;23;20057;-75
2021/09/04 14:10:23;;;;;;;4.32;2.72;;;;;;;;;;6125575;23;20468;-76
2021/09/04 14:12:48;;;;;;;6.80;3.00;;;;;;;;;;6099929;23;20016;-75
2021/09/04 14:15:14;;;;;;;11.25;3.90;;;;;;;;;;6125805;23;20009;-75
2021/09/04 14:17:39;;;;;;;7.07;3.47;;;;;;;;;;6125891;23;19994;-75
2021/09/04 14:20:06;;;;;;;5.90;3.70;;;;;;;;;;6125404;23;19997;-75
2021/09/04 14:22:31;;;;;;;5.10;2.97;;;;;;;;;;6125489;23;20052;-75
2021/09/04 14:24:56;;;;;;;5.95;2.78;;;;;;;;;;6125762;23;20002;-75
2021/09/04 14:27:24;;;;;;;3.38;2.65;;;;;;;;;;6125757;23;20024;-75
2021/09/04 14:29:49;;;;;;;4.65;2.88;;;;;;;;;;6125672;23;20006;-75